Warrior Run, Pennsylvania
Current Conditions -  °F | °C
As of 8:54 PM on Friday 31 Oct 2014 (Local Time) from KAVP Reporting Station
Overcast Overcast  
Wind Chill: 49°   Ceiling: 4800
Heat Index: 49°   Visibility: 10mi
Dew Point: 33°   Wind: 3mph
Humidity: 54%   Direction: 50°NE
Pressure: 29.89"   Gusts: NA
Location:  41.1921°N, 75.9213°W
Report Text: KAVP 010054Z 05003KT 10SM OVC048 09/01 A2989 RMK AO2 SLP124 T00940006
Loading
Personal Weather Stations






























Interactive Weather Map
Tropical Storm Tracking
New forecast layout! Learn more

10-Day Weather Forecast

Advertisements
Track Severe Weather on mobile